Time;durP1;ratioP1;P1;durP2;ratioP2;P2;SDS_P1;SDS_P2;PMS_P1;PMS_P2;Temp;Humidity;BMP_temperature;BMP_pressure;BME280_temperature;BME280_humidity;BME280_pressure;Samples;Min_cycle;Max_cycle;Signal;HPM_P1;HPM_P2
2022/03/17 00:01:10;;;;;;;37.30;7.57;;;;;;;;;;4946646;28;20134;-74
2022/03/17 00:03:35;;;;;;;38.60;7.70;;;;;;;;;;4934874;28;20113;-73
2022/03/17 00:06:01;;;;;;;34.78;7.13;;;;;;;;;;4934687;28;20048;-72
2022/03/17 00:08:27;;;;;;;42.85;8.10;;;;;;;;;;4934634;28;20047;-77
2022/03/17 00:10:53;;;;;;;40.33;7.90;;;;;;;;;;4934633;28;20432;-71
2022/03/17 00:13:19;;;;;;;44.70;8.45;;;;;;;;;;4931696;28;20047;-74
2022/03/17 00:15:45;;;;;;;41.38;7.90;;;;;;;;;;4935872;28;20069;-74
2022/03/17 00:18:11;;;;;;;47.72;7.57;;;;;;;;;;4935078;28;20237;-74
2022/03/17 00:20:39;;;;;;;45.67;7.80;;;;;;;;;;4930061;28;20089;-75
2022/03/17 00:23:05;;;;;;;44.10;9.07;;;;;;;;;;4932700;28;20055;-74
2022/03/17 00:25:32;;;;;;;34.58;7.93;;;;;;;;;;4930869;28;20048;-73
2022/03/17 00:27:59;;;;;;;47.63;8.23;;;;;;;;;;4936939;28;20164;-73
2022/03/17 00:30:25;;;;;;;38.08;8.75;;;;;;;;;;4931754;28;20047;-74
2022/03/17 00:32:51;;;;;;;41.28;7.88;;;;;;;;;;4931899;28;20047;-73
2022/03/17 00:35:36;;;;;;;37.42;7.05;;;;;;;;;;4926797;28;20047;-75
2022/03/17 00:38:10;;;;;;;33.50;7.00;;;;;;;;;;4936720;28;20059;-72
2022/03/17 00:40:37;;;;;;;43.65;6.93;;;;;;;;;;4935959;28;20048;-72
2022/03/17 00:43:04;;;;;;;32.05;6.30;;;;;;;;;;4931890;28;20112;-71
2022/03/17 00:45:30;;;;;;;36.65;6.80;;;;;;;;;;4931378;28;20044;-72
2022/03/17 00:47:56;;;;;;;35.83;7.10;;;;;;;;;;4936104;28;20070;-72
2022/03/17 00:50:22;;;;;;;27.50;6.22;;;;;;;;;;4930710;28;20052;-72
2022/03/17 00:52:48;;;;;;;27.05;6.20;;;;;;;;;;4933879;28;20067;-72
2022/03/17 00:55:15;;;;;;;30.05;6.30;;;;;;;;;;4936391;28;20047;-74
2022/03/17 00:57:41;;;;;;;27.40;6.25;;;;;;;;;;4935168;28;20423;-73
2022/03/17 01:00:09;;;;;;;29.77;6.28;;;;;;;;;;4931540;28;20109;-73
2022/03/17 01:02:36;;;;;;;24.27;6.13;;;;;;;;;;4937791;28;20059;-71
2022/03/17 01:05:03;;;;;;;27.00;6.35;;;;;;;;;;4933729;28;20062;-74
2022/03/17 01:07:29;;;;;;;25.70;6.30;;;;;;;;;;4931574;28;20349;-72
2022/03/17 01:09:54;;;;;;;26.23;6.70;;;;;;;;;;4933575;28;20232;-71
2022/03/17 01:12:20;;;;;;;24.55;6.30;;;;;;;;;;4933974;28;20058;-72
2022/03/17 01:14:47;;;;;;;21.70;6.35;;;;;;;;;;4939176;28;20543;-72
2022/03/17 01:17:13;;;;;;;20.67;6.43;;;;;;;;;;4940493;28;20515;-74
2022/03/17 01:19:39;;;;;;;26.77;6.15;;;;;;;;;;4940090;28;20051;-74
2022/03/17 01:22:05;;;;;;;30.40;6.07;;;;;;;;;;4934551;28;20120;-74
2022/03/17 01:24:31;;;;;;;24.10;5.85;;;;;;;;;;4936994;28;20724;-73
2022/03/17 01:26:57;;;;;;;25.60;6.53;;;;;;;;;;4940697;28;20617;-72
2022/03/17 01:29:23;;;;;;;26.05;6.28;;;;;;;;;;4937176;28;20079;-70
2022/03/17 01:31:50;;;;;;;23.45;5.07;;;;;;;;;;4933433;28;20079;-73
2022/03/17 01:34:17;;;;;;;36.53;5.55;;;;;;;;;;4938552;28;20083;-71
2022/03/17 01:36:43;;;;;;;26.85;5.63;;;;;;;;;;4936434;28;20113;-74
2022/03/17 01:39:09;;;;;;;27.35;6.40;;;;;;;;;;4937470;28;20063;-72
2022/03/17 01:41:35;;;;;;;26.83;5.63;;;;;;;;;;4939901;28;20142;-75
2022/03/17 01:44:01;;;;;;;32.75;6.68;;;;;;;;;;4934862;28;20113;-72
2022/03/17 01:46:27;;;;;;;26.80;6.10;;;;;;;;;;4935446;28;20051;-74
2022/03/17 01:48:54;;;;;;;28.98;6.82;;;;;;;;;;4935708;28;20062;-72
2022/03/17 01:51:19;;;;;;;25.98;6.28;;;;;;;;;;4941358;28;20130;-72
2022/03/17 01:53:46;;;;;;;32.67;7.65;;;;;;;;;;4940840;28;20050;-72
2022/03/17 01:56:12;;;;;;;41.83;8.02;;;;;;;;;;4938964;28;20433;-71
2022/03/17 01:58:38;;;;;;;31.63;7.40;;;;;;;;;;4936403;28;20524;-73
2022/03/17 02:01:04;;;;;;;23.52;5.68;;;;;;;;;;4940224;28;20130;-71
2022/03/17 02:03:30;;;;;;;29.00;5.50;;;;;;;;;;4932060;28;20048;-72
2022/03/17 02:05:56;;;;;;;28.95;6.20;;;;;;;;;;4931594;28;20396;-70
2022/03/17 02:08:22;;;;;;;19.95;4.97;;;;;;;;;;4932816;28;20081;-70
2022/03/17 02:13:32;;;;;;;30.83;5.93;;;;;;;;;;4931679;28;20572;-71
2022/03/17 02:16:02;;;;;;;21.23;4.85;;;;;;;;;;4934897;28;20059;-74
2022/03/17 02:18:28;;;;;;;19.42;4.63;;;;;;;;;;4933295;28;20047;-71
2022/03/17 02:20:57;;;;;;;25.70;5.57;;;;;;;;;;4937212;28;20066;-69
2022/03/17 02:26:07;;;;;;;30.15;5.53;;;;;;;;;;4941569;28;20102;-72
2022/03/17 02:28:33;;;;;;;19.98;5.82;;;;;;;;;;4939810;28;20074;-74
2022/03/17 02:31:01;;;;;;;22.25;6.07;;;;;;;;;;4945711;28;20117;-71
2022/03/17 02:33:27;;;;;;;16.05;5.57;;;;;;;;;;4939682;28;20705;-73
2022/03/17 02:35:56;;;;;;;18.40;5.55;;;;;;;;;;4941548;28;20059;-70
2022/03/17 02:38:22;;;;;;;21.27;6.75;;;;;;;;;;4937095;28;20505;-73
2022/03/17 02:40:52;;;;;;;20.95;6.95;;;;;;;;;;4939185;28;20064;-71
2022/03/17 02:43:19;;;;;;;22.25;5.95;;;;;;;;;;4940217;28;20055;-73
2022/03/17 02:45:45;;;;;;;20.88;6.38;;;;;;;;;;4942264;28;20039;-70
2022/03/17 02:48:12;;;;;;;24.05;7.22;;;;;;;;;;4936207;28;20054;-73
2022/03/17 02:50:38;;;;;;;21.42;6.38;;;;;;;;;;4929304;28;20052;-74
2022/03/17 02:53:08;;;;;;;24.25;6.70;;;;;;;;;;4931739;28;20067;-71
2022/03/17 02:55:37;;;;;;;16.98;5.72;;;;;;;;;;4932343;28;20073;-74
2022/03/17 02:58:05;;;;;;;23.48;7.75;;;;;;;;;;4934604;28;20429;-72
2022/03/17 03:00:31;;;;;;;22.73;6.28;;;;;;;;;;4934150;28;20079;-72
2022/03/17 03:02:57;;;;;;;20.27;5.95;;;;;;;;;;4934242;28;20043;-74
2022/03/17 03:05:23;;;;;;;26.40;6.85;;;;;;;;;;4938247;28;20105;-74
2022/03/17 03:07:49;;;;;;;16.00;5.75;;;;;;;;;;4931353;28;20101;-73
2022/03/17 03:10:18;;;;;;;23.67;6.55;;;;;;;;;;4931783;28;20500;-73
2022/03/17 03:12:44;;;;;;;22.33;6.35;;;;;;;;;;4935256;28;20047;-73
2022/03/17 03:15:10;;;;;;;21.38;6.10;;;;;;;;;;4935693;28;20044;-75
2022/03/17 03:17:36;;;;;;;28.38;7.07;;;;;;;;;;4938930;28;20081;-73
2022/03/17 03:20:03;;;;;;;26.35;6.38;;;;;;;;;;4938755;28;20047;-73
2022/03/17 03:22:29;;;;;;;23.27;6.43;;;;;;;;;;4942671;28;20064;-72
2022/03/17 03:24:57;;;;;;;21.13;5.78;;;;;;;;;;4928097;28;20047;-72
2022/03/17 03:27:27;;;;;;;22.23;6.57;;;;;;;;;;4936299;28;20052;-74
2022/03/17 03:29:54;;;;;;;23.02;6.55;;;;;;;;;;4930774;28;20329;-72
2022/03/17 03:32:21;;;;;;;19.17;6.35;;;;;;;;;;4933517;28;20063;-75
2022/03/17 03:34:46;;;;;;;19.17;6.47;;;;;;;;;;4939750;28;20550;-75
2022/03/17 03:37:25;;;;;;;30.17;8.35;;;;;;;;;;4937867;28;20330;-75
2022/03/17 03:39:54;;;;;;;28.38;7.07;;;;;;;;;;4938363;28;20142;-76
2022/03/17 03:42:21;;;;;;;22.15;6.78;;;;;;;;;;4942123;28;20058;-74
2022/03/17 03:44:47;;;;;;;21.35;7.10;;;;;;;;;;4934709;28;20047;-73
2022/03/17 03:47:14;;;;;;;23.40;6.30;;;;;;;;;;4936447;28;20061;-73
2022/03/17 03:49:40;;;;;;;22.55;6.50;;;;;;;;;;4932490;28;20504;-72
2022/03/17 03:52:11;;;;;;;27.55;6.78;;;;;;;;;;4935615;28;20055;-72
2022/03/17 03:54:38;;;;;;;20.50;5.85;;;;;;;;;;4940306;28;20054;-71
2022/03/17 03:57:05;;;;;;;29.02;6.03;;;;;;;;;;4940061;28;20413;-73
2022/03/17 03:59:32;;;;;;;26.33;6.15;;;;;;;;;;4937020;28;20733;-72
2022/03/17 04:02:02;;;;;;;20.73;5.32;;;;;;;;;;4927539;28;21011;-74
2022/03/17 04:04:29;;;;;;;16.77;5.85;;;;;;;;;;4934278;28;20500;-72
2022/03/17 04:06:58;;;;;;;24.50;6.22;;;;;;;;;;4936633;28;20087;-71
2022/03/17 04:09:38;;;;;;;17.13;5.50;;;;;;;;;;5088684;27;1769178;-72
2022/03/17 04:12:04;;;;;;;;;;;;;;;;;;5130118;27;20374;-74
2022/03/17 04:14:31;;;;;;;19.05;6.50;;;;;;;;;;5128850;27;19999;-73
2022/03/17 04:16:57;;;;;;;20.55;6.78;;;;;;;;;;5122555;27;20454;-71
2022/03/17 04:19:24;;;;;;;23.42;7.05;;;;;;;;;;5122238;27;20039;-73
2022/03/17 04:21:50;;;;;;;22.38;7.47;;;;;;;;;;5109951;27;20051;-74
2022/03/17 04:24:17;;;;;;;21.75;7.88;;;;;;;;;;5108731;27;20130;-73
2022/03/17 04:26:45;;;;;;;24.15;7.32;;;;;;;;;;5126227;27;20118;-73
2022/03/17 04:29:11;;;;;;;25.77;7.60;;;;;;;;;;5123852;27;20060;-73
2022/03/17 04:31:39;;;;;;;26.55;8.02;;;;;;;;;;5126173;27;20078;-74
2022/03/17 04:34:06;;;;;;;28.95;7.88;;;;;;;;;;5124066;27;20237;-75
2022/03/17 04:36:32;;;;;;;25.02;7.50;;;;;;;;;;5129843;27;20051;-74
2022/03/17 04:38:59;;;;;;;27.70;7.55;;;;;;;;;;5121075;27;20047;-73
2022/03/17 04:41:25;;;;;;;21.75;7.38;;;;;;;;;;5119904;27;20131;-74
2022/03/17 04:43:51;;;;;;;31.58;7.45;;;;;;;;;;5105180;27;20409;-73
2022/03/17 04:46:17;;;;;;;23.90;7.35;;;;;;;;;;5108406;27;20034;-74
2022/03/17 04:48:43;;;;;;;19.98;6.70;;;;;;;;;;5120430;27;20040;-75
2022/03/17 04:51:09;;;;;;;24.77;7.60;;;;;;;;;;5115583;27;20043;-72
2022/03/17 04:53:35;;;;;;;23.75;7.43;;;;;;;;;;5125626;27;20051;-75
2022/03/17 04:56:14;;;;;;;27.45;7.88;;;;;;;;;;5123554;27;20051;-75
2022/03/17 04:58:42;;;;;;;23.45;7.72;;;;;;;;;;5124585;27;20043;-74
2022/03/17 05:01:10;;;;;;;18.98;7.60;;;;;;;;;;5120931;27;20054;-73
2022/03/17 05:03:36;;;;;;;20.08;7.93;;;;;;;;;;5115154;27;20162;-73
2022/03/17 05:06:03;;;;;;;29.92;7.82;;;;;;;;;;5119520;27;20047;-72
2022/03/17 05:08:34;;;;;;;29.52;9.07;;;;;;;;;;5120054;27;20057;-76
2022/03/17 05:11:00;;;;;;;26.70;8.20;;;;;;;;;;5125514;27;20107;-70
2022/03/17 05:13:26;;;;;;;25.70;8.20;;;;;;;;;;5127867;27;20844;-68
2022/03/17 05:15:52;;;;;;;33.58;8.70;;;;;;;;;;5125127;27;20516;-76
2022/03/17 05:18:19;;;;;;;29.27;8.23;;;;;;;;;;5125072;27;20043;-75
2022/03/17 05:20:46;;;;;;;36.63;7.60;;;;;;;;;;5111053;27;20047;-71
2022/03/17 05:23:14;;;;;;;30.02;8.00;;;;;;;;;;5114986;27;20149;-68
2022/03/17 05:25:42;;;;;;;32.63;7.43;;;;;;;;;;5116030;27;20043;-71
2022/03/17 05:28:08;;;;;;;27.65;7.60;;;;;;;;;;5115492;27;20079;-75
2022/03/17 05:30:36;;;;;;;30.88;8.07;;;;;;;;;;5110776;27;20130;-67
2022/03/17 05:33:03;;;;;;;30.85;8.48;;;;;;;;;;5113989;27;20411;-68
2022/03/17 05:35:29;;;;;;;29.77;7.95;;;;;;;;;;5111042;27;20044;-73
2022/03/17 05:37:56;;;;;;;28.67;7.13;;;;;;;;;;5106455;27;20048;-68
2022/03/17 05:40:23;;;;;;;30.80;7.97;;;;;;;;;;5114781;27;20082;-70
2022/03/17 05:42:57;;;;;;;40.90;8.32;;;;;;;;;;5087563;27;20477;-71
2022/03/17 05:45:27;;;;;;;38.05;7.68;;;;;;;;;;5103777;27;20036;-71
2022/03/17 05:47:58;;;;;;;42.83;7.93;;;;;;;;;;5108819;27;20479;-68
2022/03/17 05:50:28;;;;;;;48.65;9.18;;;;;;;;;;5107677;27;20051;-68
2022/03/17 05:52:54;;;;;;;50.65;9.38;;;;;;;;;;5105646;27;20043;-70
2022/03/17 05:55:23;;;;;;;66.78;9.90;;;;;;;;;;5111246;27;20526;-71
2022/03/17 05:57:52;;;;;;;63.08;10.77;;;;;;;;;;5111995;27;20047;-69
2022/03/17 06:00:23;;;;;;;66.20;10.07;;;;;;;;;;5111074;27;20046;-75
2022/03/17 06:02:49;;;;;;;58.65;8.90;;;;;;;;;;5084655;27;20097;-77
2022/03/17 06:05:15;;;;;;;68.07;11.48;;;;;;;;;;5107238;27;20043;-71
2022/03/17 06:07:49;;;;;;;57.75;10.65;;;;;;;;;;5112598;27;20060;-69
2022/03/17 06:10:24;;;;;;;57.05;9.90;;;;;;;;;;5100237;27;20484;-70
2022/03/17 06:12:52;;;;;;;49.72;9.13;;;;;;;;;;5108083;27;20484;-72
2022/03/17 06:15:20;;;;;;;53.28;9.90;;;;;;;;;;5112265;27;20055;-74
2022/03/17 06:17:51;;;;;;;63.05;10.82;;;;;;;;;;5106910;27;20078;-74
2022/03/17 06:20:19;;;;;;;52.72;8.73;;;;;;;;;;5094583;27;20496;-69
2022/03/17 06:22:48;;;;;;;38.38;7.95;;;;;;;;;;5112162;27;20052;-73
2022/03/17 06:25:19;;;;;;;43.63;9.10;;;;;;;;;;5094926;28;20081;-73
2022/03/17 06:27:47;;;;;;;44.38;8.57;;;;;;;;;;5110849;27;20046;-72
2022/03/17 06:30:21;;;;;;;43.72;8.80;;;;;;;;;;5082327;27;20081;-73
2022/03/17 06:32:47;;;;;;;47.03;8.75;;;;;;;;;;5092396;27;20134;-73
2022/03/17 06:35:17;;;;;;;59.67;9.80;;;;;;;;;;5107963;27;20044;-69
2022/03/17 06:37:49;;;;;;;50.22;8.73;;;;;;;;;;5107467;27;20054;-71
2022/03/17 06:40:16;;;;;;;64.25;10.35;;;;;;;;;;5106906;27;20040;-73
2022/03/17 06:42:43;;;;;;;61.85;11.02;;;;;;;;;;5105360;27;20085;-72
2022/03/17 06:45:10;;;;;;;58.35;10.88;;;;;;;;;;5114465;27;20236;-74
2022/03/17 06:47:36;;;;;;;65.35;12.05;;;;;;;;;;5113404;27;20058;-76
2022/03/17 06:50:02;;;;;;;51.15;10.57;;;;;;;;;;5121124;27;20043;-74
2022/03/17 06:52:28;;;;;;;51.53;8.45;;;;;;;;;;5110898;27;20047;-75
2022/03/17 06:54:53;;;;;;;52.53;9.07;;;;;;;;;;5110120;27;20472;-74
2022/03/17 06:57:21;;;;;;;51.17;8.88;;;;;;;;;;5090628;27;20381;-76
2022/03/17 06:59:48;;;;;;;54.30;9.20;;;;;;;;;;5091528;27;20496;-74
2022/03/17 07:02:14;;;;;;;48.92;9.15;;;;;;;;;;5102316;27;20071;-73
2022/03/17 07:04:41;;;;;;;43.20;7.93;;;;;;;;;;5106833;27;20054;-75
2022/03/17 07:07:07;;;;;;;43.53;8.40;;;;;;;;;;5108884;27;20047;-72
2022/03/17 07:09:35;;;;;;;52.90;9.18;;;;;;;;;;5099924;27;20382;-72
2022/03/17 07:12:01;;;;;;;46.42;8.48;;;;;;;;;;5088836;27;20046;-74
2022/03/17 07:14:27;;;;;;;46.53;8.82;;;;;;;;;;5106934;27;20504;-75
2022/03/17 07:16:53;;;;;;;59.85;10.77;;;;;;;;;;5104600;27;20035;-73
2022/03/17 07:19:19;;;;;;;61.08;11.02;;;;;;;;;;5108701;27;20044;-72
2022/03/17 07:21:45;;;;;;;52.42;9.80;;;;;;;;;;5112202;27;20053;-73
2022/03/17 07:24:11;;;;;;;57.05;9.57;;;;;;;;;;5091970;27;20407;-76
2022/03/17 07:26:39;;;;;;;52.65;10.05;;;;;;;;;;5111777;27;20116;-71
2022/03/17 07:29:05;;;;;;;70.28;12.35;;;;;;;;;;5101931;27;20071;-72
2022/03/17 07:31:31;;;;;;;61.75;9.82;;;;;;;;;;5113761;27;20086;-72
2022/03/17 07:33:57;;;;;;;66.45;11.25;;;;;;;;;;5107414;27;20173;-74
2022/03/17 07:36:23;;;;;;;61.40;10.45;;;;;;;;;;5103521;27;20040;-76
2022/03/17 07:38:49;;;;;;;61.33;10.77;;;;;;;;;;5085582;27;20047;-74
2022/03/17 07:41:15;;;;;;;66.55;11.15;;;;;;;;;;5110504;27;20044;-74
2022/03/17 07:43:43;;;;;;;70.15;10.70;;;;;;;;;;5104191;27;20047;-75
2022/03/17 07:46:10;;;;;;;64.60;11.10;;;;;;;;;;5109308;27;20043;-78
2022/03/17 07:48:36;;;;;;;73.57;11.43;;;;;;;;;;5114963;27;20096;-73
2022/03/17 07:51:02;;;;;;;63.05;10.27;;;;;;;;;;5110507;27;20051;-77
2022/03/17 07:53:28;;;;;;;78.68;11.50;;;;;;;;;;5112215;27;20070;-72
2022/03/17 07:55:55;;;;;;;79.72;11.02;;;;;;;;;;5110182;27;20122;-72
2022/03/17 07:58:24;;;;;;;75.65;13.05;;;;;;;;;;5111974;27;20051;-76
2022/03/17 08:00:55;;;;;;;61.90;12.05;;;;;;;;;;5091554;28;20161;-74
2022/03/17 08:03:22;;;;;;;70.38;11.25;;;;;;;;;;5118112;27;20082;-73
2022/03/17 08:05:48;;;;;;;68.95;11.85;;;;;;;;;;5110898;27;20044;-74
2022/03/17 08:08:15;;;;;;;72.10;12.30;;;;;;;;;;5094557;28;20143;-71
2022/03/17 08:10:42;;;;;;;60.97;10.90;;;;;;;;;;5097718;28;20047;-70
2022/03/17 08:13:09;;;;;;;79.65;12.05;;;;;;;;;;5093091;28;20052;-70
2022/03/17 08:15:39;;;;;;;66.88;11.23;;;;;;;;;;5085706;28;20046;-73
2022/03/17 08:18:08;;;;;;;65.07;11.48;;;;;;;;;;5098644;28;20031;-70
2022/03/17 08:20:39;;;;;;;70.60;11.13;;;;;;;;;;5102175;28;20071;-66
2022/03/17 08:23:06;;;;;;;60.60;10.82;;;;;;;;;;5111475;28;20043;-73
2022/03/17 08:25:33;;;;;;;57.20;9.70;;;;;;;;;;5103861;28;20047;-69
2022/03/17 08:28:02;;;;;;;69.72;10.60;;;;;;;;;;5094786;28;20425;-69
2022/03/17 08:30:29;;;;;;;62.78;10.25;;;;;;;;;;5094370;28;20094;-69
2022/03/17 08:32:56;;;;;;;60.58;10.27;;;;;;;;;;5110844;28;20044;-67
2022/03/17 08:35:22;;;;;;;62.50;10.40;;;;;;;;;;5110718;28;20070;-67
2022/03/17 08:37:48;;;;;;;63.88;10.85;;;;;;;;;;5103891;28;20342;-68
2022/03/17 08:40:14;;;;;;;62.67;9.77;;;;;;;;;;5099349;28;20408;-68
2022/03/17 08:42:41;;;;;;;50.38;9.05;;;;;;;;;;5107610;28;20120;-67
2022/03/17 08:50:42;;;;;;;53.80;9.50;;;;;;;;;;5108893;28;20516;-74
2022/03/17 08:53:08;;;;;;;52.30;8.95;;;;;;;;;;5105752;28;20047;-69
2022/03/17 08:55:36;;;;;;;68.07;11.40;;;;;;;;;;5112369;28;20051;-66
2022/03/17 08:58:03;;;;;;;58.88;9.82;;;;;;;;;;5116001;28;20244;-64
2022/03/17 09:00:31;;;;;;;58.35;10.40;;;;;;;;;;5109474;28;20449;-65
2022/03/17 09:03:01;;;;;;;56.78;9.57;;;;;;;;;;5107111;28;20052;-64
2022/03/17 09:05:28;;;;;;;58.35;10.05;;;;;;;;;;5100083;28;20197;-64
2022/03/17 09:07:55;;;;;;;59.83;9.05;;;;;;;;;;5090797;28;20058;-66
2022/03/17 09:10:22;;;;;;;56.22;9.95;;;;;;;;;;5100245;27;20051;-71
2022/03/17 09:12:48;;;;;;;47.22;9.77;;;;;;;;;;5109389;27;20110;-67
